sensor_id;sensor_type;location;lat;lon;timestamp;P1;durP1;ratioP1;P2;durP2;ratioP2
27644;SDS011;15054;57.152;-2.118;2022-09-09T00:01:21;26.45;;;5.57;;
27644;SDS011;15054;57.152;-2.118;2022-09-09T00:04:26;27.55;;;5.22;;
27644;SDS011;15054;57.152;-2.118;2022-09-09T00:09:46;23.70;;;5.50;;
27644;SDS011;15054;57.152;-2.118;2022-09-09T00:13:18;29.38;;;6.88;;
27644;SDS011;15054;57.152;-2.118;2022-09-09T00:15:28;21.40;;;5.65;;
27644;SDS011;15054;57.152;-2.118;2022-09-09T00:20:59;27.55;;;5.10;;
27644;SDS011;15054;57.152;-2.118;2022-09-09T00:23:38;19.48;;;5.28;;
27644;SDS011;15054;57.152;-2.118;2022-09-09T00:29:10;20.42;;;4.95;;
27644;SDS011;15054;57.152;-2.118;2022-09-09T00:31:50;14.45;;;4.03;;
27644;SDS011;15054;57.152;-2.118;2022-09-09T00:34:23;15.45;;;3.22;;
27644;SDS011;15054;57.152;-2.118;2022-09-09T00:36:52;16.63;;;3.97;;
27644;SDS011;15054;57.152;-2.118;2022-09-09T00:44:33;29.02;;;5.25;;
27644;SDS011;15054;57.152;-2.118;2022-09-09T00:47:09;19.92;;;4.13;;
27644;SDS011;15054;57.152;-2.118;2022-09-09T00:49:50;38.13;;;6.30;;
27644;SDS011;15054;57.152;-2.118;2022-09-09T00:56:11;25.60;;;4.85;;
27644;SDS011;15054;57.152;-2.118;2022-09-09T00:58:37;35.25;;;6.10;;
27644;SDS011;15054;57.152;-2.118;2022-09-09T01:01:06;23.98;;;5.03;;
27644;SDS011;15054;57.152;-2.118;2022-09-09T01:03:40;36.80;;;6.03;;
27644;SDS011;15054;57.152;-2.118;2022-09-09T01:09:14;19.08;;;5.28;;
27644;SDS011;15054;57.152;-2.118;2022-09-09T01:12:14;24.48;;;5.40;;
27644;SDS011;15054;57.152;-2.118;2022-09-09T01:14:49;28.55;;;5.57;;
27644;SDS011;15054;57.152;-2.118;2022-09-09T01:17:21;31.38;;;5.90;;
27644;SDS011;15054;57.152;-2.118;2022-09-09T01:20:17;30.52;;;4.93;;
27644;SDS011;15054;57.152;-2.118;2022-09-09T01:23:14;28.67;;;5.45;;
27644;SDS011;15054;57.152;-2.118;2022-09-09T01:26:14;33.42;;;6.70;;
27644;SDS011;15054;57.152;-2.118;2022-09-09T01:28:50;27.45;;;4.78;;
27644;SDS011;15054;57.152;-2.118;2022-09-09T01:31:29;19.17;;;4.30;;
27644;SDS011;15054;57.152;-2.118;2022-09-09T01:34:13;28.90;;;5.88;;
27644;SDS011;15054;57.152;-2.118;2022-09-09T01:36:49;24.10;;;5.13;;
27644;SDS011;15054;57.152;-2.118;2022-09-09T01:39:19;30.60;;;6.63;;
27644;SDS011;15054;57.152;-2.118;2022-09-09T01:41:57;30.52;;;5.70;;
27644;SDS011;15054;57.152;-2.118;2022-09-09T01:44:24;18.73;;;5.20;;
27644;SDS011;15054;57.152;-2.118;2022-09-09T01:46:52;26.60;;;5.82;;
27644;SDS011;15054;57.152;-2.118;2022-09-09T01:49:22;29.17;;;5.82;;
27644;SDS011;15054;57.152;-2.118;2022-09-09T01:51:49;28.65;;;5.38;;
27644;SDS011;15054;57.152;-2.118;2022-09-09T01:54:28;18.80;;;4.97;;
27644;SDS011;15054;57.152;-2.118;2022-09-09T01:59:42;28.33;;;6.00;;
27644;SDS011;15054;57.152;-2.118;2022-09-09T02:05:41;34.42;;;6.47;;
27644;SDS011;15054;57.152;-2.118;2022-09-09T02:08:38;18.05;;;4.90;;
27644;SDS011;15054;57.152;-2.118;2022-09-09T02:11:14;25.83;;;6.65;;
27644;SDS011;15054;57.152;-2.118;2022-09-09T02:13:51;20.15;;;5.30;;
27644;SDS011;15054;57.152;-2.118;2022-09-09T02:19:06;24.17;;;4.68;;
27644;SDS011;15054;57.152;-2.118;2022-09-09T02:21:54;22.00;;;4.15;;
27644;SDS011;15054;57.152;-2.118;2022-09-09T02:24:22;18.00;;;3.28;;
27644;SDS011;15054;57.152;-2.118;2022-09-09T02:26:59;22.50;;;4.72;;
27644;SDS011;15054;57.152;-2.118;2022-09-09T02:29:31;17.65;;;3.95;;
27644;SDS011;15054;57.152;-2.118;2022-09-09T02:32:04;20.38;;;3.22;;
27644;SDS011;15054;57.152;-2.118;2022-09-09T02:34:39;27.05;;;3.72;;
27644;SDS011;15054;57.152;-2.118;2022-09-09T02:37:10;17.73;;;3.38;;
27644;SDS011;15054;57.152;-2.118;2022-09-09T02:39:45;22.48;;;3.85;;
27644;SDS011;15054;57.152;-2.118;2022-09-09T02:42:16;23.23;;;3.83;;
27644;SDS011;15054;57.152;-2.118;2022-09-09T02:44:43;20.75;;;4.15;;
27644;SDS011;15054;57.152;-2.118;2022-09-09T02:52:26;19.52;;;4.32;;
27644;SDS011;15054;57.152;-2.118;2022-09-09T02:54:56;32.20;;;5.03;;
27644;SDS011;15054;57.152;-2.118;2022-09-09T02:57:26;30.83;;;6.05;;
27644;SDS011;15054;57.152;-2.118;2022-09-09T02:59:57;29.42;;;6.32;;
27644;SDS011;15054;57.152;-2.118;2022-09-09T03:02:25;29.70;;;4.90;;
27644;SDS011;15054;57.152;-2.118;2022-09-09T03:04:58;19.05;;;4.03;;
27644;SDS011;15054;57.152;-2.118;2022-09-09T03:07:26;38.15;;;6.18;;
27644;SDS011;15054;57.152;-2.118;2022-09-09T03:09:54;37.45;;;6.40;;
27644;SDS011;15054;57.152;-2.118;2022-09-09T03:12:24;40.65;;;6.40;;
27644;SDS011;15054;57.152;-2.118;2022-09-09T03:14:51;25.67;;;5.63;;
27644;SDS011;15054;57.152;-2.118;2022-09-09T03:17:18;40.05;;;7.05;;
27644;SDS011;15054;57.152;-2.118;2022-09-09T03:19:50;33.90;;;8.02;;
27644;SDS011;15054;57.152;-2.118;2022-09-09T03:22:21;32.65;;;6.18;;
27644;SDS011;15054;57.152;-2.118;2022-09-09T03:24:49;26.23;;;5.68;;
27644;SDS011;15054;57.152;-2.118;2022-09-09T03:27:17;51.60;;;7.78;;
27644;SDS011;15054;57.152;-2.118;2022-09-09T03:29:46;45.30;;;7.07;;
27644;SDS011;15054;57.152;-2.118;2022-09-09T03:32:18;25.08;;;5.60;;
27644;SDS011;15054;57.152;-2.118;2022-09-09T03:34:48;30.30;;;5.43;;
27644;SDS011;15054;57.152;-2.118;2022-09-09T03:37:19;27.75;;;4.93;;
27644;SDS011;15054;57.152;-2.118;2022-09-09T03:39:48;24.30;;;4.97;;
27644;SDS011;15054;57.152;-2.118;2022-09-09T03:42:17;23.45;;;4.82;;
27644;SDS011;15054;57.152;-2.118;2022-09-09T03:44:48;32.25;;;6.25;;
27644;SDS011;15054;57.152;-2.118;2022-09-09T03:47:21;32.30;;;6.65;;
27644;SDS011;15054;57.152;-2.118;2022-09-09T03:49:53;22.25;;;5.07;;
27644;SDS011;15054;57.152;-2.118;2022-09-09T03:52:20;31.13;;;5.10;;
27644;SDS011;15054;57.152;-2.118;2022-09-09T03:54:50;23.30;;;5.22;;
27644;SDS011;15054;57.152;-2.118;2022-09-09T03:57:18;28.90;;;4.90;;
27644;SDS011;15054;57.152;-2.118;2022-09-09T03:59:46;19.88;;;4.30;;
27644;SDS011;15054;57.152;-2.118;2022-09-09T04:02:14;20.65;;;4.18;;
27644;SDS011;15054;57.152;-2.118;2022-09-09T04:04:42;15.40;;;3.50;;
27644;SDS011;15054;57.152;-2.118;2022-09-09T04:07:09;30.42;;;5.72;;
27644;SDS011;15054;57.152;-2.118;2022-09-09T04:09:39;24.65;;;4.32;;
27644;SDS011;15054;57.152;-2.118;2022-09-09T04:12:06;16.13;;;3.83;;
27644;SDS011;15054;57.152;-2.118;2022-09-09T04:14:34;19.55;;;3.88;;
27644;SDS011;15054;57.152;-2.118;2022-09-09T04:17:03;21.30;;;3.75;;
27644;SDS011;15054;57.152;-2.118;2022-09-09T04:19:33;23.92;;;5.65;;
27644;SDS011;15054;57.152;-2.118;2022-09-09T04:22:00;22.35;;;5.20;;
27644;SDS011;15054;57.152;-2.118;2022-09-09T04:24:28;19.90;;;3.78;;
27644;SDS011;15054;57.152;-2.118;2022-09-09T04:26:57;19.33;;;3.90;;
27644;SDS011;15054;57.152;-2.118;2022-09-09T04:29:24;17.92;;;3.25;;
27644;SDS011;15054;57.152;-2.118;2022-09-09T04:31:51;25.60;;;4.38;;
27644;SDS011;15054;57.152;-2.118;2022-09-09T04:34:19;17.88;;;3.33;;
27644;SDS011;15054;57.152;-2.118;2022-09-09T04:36:47;18.85;;;3.75;;
27644;SDS011;15054;57.152;-2.118;2022-09-09T04:39:15;20.52;;;4.63;;
27644;SDS011;15054;57.152;-2.118;2022-09-09T04:41:43;20.25;;;3.88;;
27644;SDS011;15054;57.152;-2.118;2022-09-09T04:44:10;21.38;;;3.95;;
27644;SDS011;15054;57.152;-2.118;2022-09-09T04:46:37;24.95;;;4.93;;
27644;SDS011;15054;57.152;-2.118;2022-09-09T04:49:05;24.90;;;5.32;;
27644;SDS011;15054;57.152;-2.118;2022-09-09T04:51:33;22.52;;;4.45;;
27644;SDS011;15054;57.152;-2.118;2022-09-09T04:54:01;32.45;;;5.53;;
27644;SDS011;15054;57.152;-2.118;2022-09-09T04:56:29;20.58;;;4.28;;
27644;SDS011;15054;57.152;-2.118;2022-09-09T04:58:57;18.73;;;4.07;;
27644;SDS011;15054;57.152;-2.118;2022-09-09T05:01:35;18.63;;;4.28;;
27644;SDS011;15054;57.152;-2.118;2022-09-09T05:04:04;15.65;;;3.50;;
27644;SDS011;15054;57.152;-2.118;2022-09-09T05:06:33;14.25;;;4.30;;
27644;SDS011;15054;57.152;-2.118;2022-09-09T05:09:00;18.10;;;4.38;;
27644;SDS011;15054;57.152;-2.118;2022-09-09T05:11:29;22.63;;;5.15;;
27644;SDS011;15054;57.152;-2.118;2022-09-09T05:14:18;20.88;;;4.68;;
27644;SDS011;15054;57.152;-2.118;2022-09-09T05:16:45;31.73;;;6.03;;
27644;SDS011;15054;57.152;-2.118;2022-09-09T05:19:14;32.35;;;5.47;;
27644;SDS011;15054;57.152;-2.118;2022-09-09T05:21:46;17.95;;;4.50;;
27644;SDS011;15054;57.152;-2.118;2022-09-09T05:24:16;20.88;;;4.93;;
27644;SDS011;15054;57.152;-2.118;2022-09-09T05:26:45;18.40;;;4.82;;
27644;SDS011;15054;57.152;-2.118;2022-09-09T05:29:12;30.42;;;5.50;;
27644;SDS011;15054;57.152;-2.118;2022-09-09T05:31:39;21.67;;;5.15;;
27644;SDS011;15054;57.152;-2.118;2022-09-09T05:34:11;26.35;;;5.95;;
27644;SDS011;15054;57.152;-2.118;2022-09-09T05:36:39;25.45;;;5.20;;
27644;SDS011;15054;57.152;-2.118;2022-09-09T05:39:06;31.80;;;6.05;;
27644;SDS011;15054;57.152;-2.118;2022-09-09T05:41:34;22.17;;;6.13;;
27644;SDS011;15054;57.152;-2.118;2022-09-09T05:44:02;23.60;;;5.38;;
27644;SDS011;15054;57.152;-2.118;2022-09-09T05:46:34;21.40;;;5.30;;
27644;SDS011;15054;57.152;-2.118;2022-09-09T05:49:02;28.50;;;6.55;;
27644;SDS011;15054;57.152;-2.118;2022-09-09T05:51:31;29.23;;;5.72;;
27644;SDS011;15054;57.152;-2.118;2022-09-09T05:54:05;39.75;;;6.32;;
27644;SDS011;15054;57.152;-2.118;2022-09-09T05:56:36;35.05;;;5.85;;
27644;SDS011;15054;57.152;-2.118;2022-09-09T05:59:06;28.75;;;5.45;;
27644;SDS011;15054;57.152;-2.118;2022-09-09T06:01:36;40.95;;;6.25;;
27644;SDS011;15054;57.152;-2.118;2022-09-09T06:04:11;30.58;;;6.40;;
27644;SDS011;15054;57.152;-2.118;2022-09-09T06:06:39;25.10;;;5.32;;
27644;SDS011;15054;57.152;-2.118;2022-09-09T06:11:42;38.75;;;6.82;;
27644;SDS011;15054;57.152;-2.118;2022-09-09T06:14:11;33.28;;;5.78;;
27644;SDS011;15054;57.152;-2.118;2022-09-09T06:16:39;20.63;;;4.70;;
27644;SDS011;15054;57.152;-2.118;2022-09-09T06:19:16;20.65;;;4.80;;
27644;SDS011;15054;57.152;-2.118;2022-09-09T06:21:43;28.23;;;5.95;;
27644;SDS011;15054;57.152;-2.118;2022-09-09T06:24:12;30.05;;;4.75;;
27644;SDS011;15054;57.152;-2.118;2022-09-09T06:26:41;23.85;;;4.82;;
27644;SDS011;15054;57.152;-2.118;2022-09-09T06:29:11;31.40;;;5.43;;
27644;SDS011;15054;57.152;-2.118;2022-09-09T06:31:40;30.20;;;6.10;;
27644;SDS011;15054;57.152;-2.118;2022-09-09T06:34:18;36.88;;;6.05;;
27644;SDS011;15054;57.152;-2.118;2022-09-09T06:36:49;31.55;;;5.70;;
27644;SDS011;15054;57.152;-2.118;2022-09-09T06:39:19;32.58;;;4.95;;
27644;SDS011;15054;57.152;-2.118;2022-09-09T06:41:48;21.85;;;4.97;;
27644;SDS011;15054;57.152;-2.118;2022-09-09T06:44:45;21.35;;;4.63;;
27644;SDS011;15054;57.152;-2.118;2022-09-09T06:47:27;35.55;;;6.35;;
27644;SDS011;15054;57.152;-2.118;2022-09-09T06:49:56;34.50;;;6.10;;
27644;SDS011;15054;57.152;-2.118;2022-09-09T06:52:24;28.75;;;4.65;;
27644;SDS011;15054;57.152;-2.118;2022-09-09T06:54:55;26.58;;;5.70;;
27644;SDS011;15054;57.152;-2.118;2022-09-09T06:57:22;26.55;;;5.03;;
27644;SDS011;15054;57.152;-2.118;2022-09-09T07:00:05;22.33;;;4.97;;
27644;SDS011;15054;57.152;-2.118;2022-09-09T07:02:34;30.80;;;5.30;;
27644;SDS011;15054;57.152;-2.118;2022-09-09T07:05:09;22.65;;;5.15;;
27644;SDS011;15054;57.152;-2.118;2022-09-09T07:07:38;27.67;;;5.00;;
27644;SDS011;15054;57.152;-2.118;2022-09-09T07:10:06;23.67;;;4.82;;
27644;SDS011;15054;57.152;-2.118;2022-09-09T07:12:36;26.42;;;5.55;;
27644;SDS011;15054;57.152;-2.118;2022-09-09T07:15:05;25.23;;;4.05;;
27644;SDS011;15054;57.152;-2.118;2022-09-09T07:17:32;19.58;;;4.40;;
27644;SDS011;15054;57.152;-2.118;2022-09-09T07:20:00;23.42;;;5.38;;
27644;SDS011;15054;57.152;-2.118;2022-09-09T07:22:28;30.58;;;5.63;;
27644;SDS011;15054;57.152;-2.118;2022-09-09T07:24:59;25.88;;;4.95;;
27644;SDS011;15054;57.152;-2.118;2022-09-09T07:27:28;20.67;;;4.43;;
27644;SDS011;15054;57.152;-2.118;2022-09-09T07:29:57;30.98;;;5.47;;
27644;SDS011;15054;57.152;-2.118;2022-09-09T07:32:24;28.80;;;5.50;;
27644;SDS011;15054;57.152;-2.118;2022-09-09T07:34:56;28.52;;;5.28;;
27644;SDS011;15054;57.152;-2.118;2022-09-09T07:37:27;23.13;;;4.97;;
27644;SDS011;15054;57.152;-2.118;2022-09-09T07:39:54;21.90;;;5.43;;
27644;SDS011;15054;57.152;-2.118;2022-09-09T07:42:22;27.85;;;4.88;;
27644;SDS011;15054;57.152;-2.118;2022-09-09T07:44:50;22.50;;;3.97;;
27644;SDS011;15054;57.152;-2.118;2022-09-09T07:47:21;30.85;;;6.15;;
27644;SDS011;15054;57.152;-2.118;2022-09-09T07:49:49;22.27;;;4.55;;
27644;SDS011;15054;57.152;-2.118;2022-09-09T07:52:25;20.73;;;4.82;;
27644;SDS011;15054;57.152;-2.118;2022-09-09T07:54:58;27.35;;;5.05;;
27644;SDS011;15054;57.152;-2.118;2022-09-09T07:57:30;24.92;;;5.85;;
27644;SDS011;15054;57.152;-2.118;2022-09-09T07:59:58;23.25;;;4.45;;
27644;SDS011;15054;57.152;-2.118;2022-09-09T08:02:26;20.65;;;4.28;;
27644;SDS011;15054;57.152;-2.118;2022-09-09T08:04:57;26.60;;;5.57;;
27644;SDS011;15054;57.152;-2.118;2022-09-09T08:07:25;20.70;;;3.78;;
27644;SDS011;15054;57.152;-2.118;2022-09-09T08:09:53;24.83;;;4.55;;
27644;SDS011;15054;57.152;-2.118;2022-09-09T08:12:26;25.88;;;4.63;;
27644;SDS011;15054;57.152;-2.118;2022-09-09T08:14:57;23.88;;;5.25;;
27644;SDS011;15054;57.152;-2.118;2022-09-09T08:17:28;21.83;;;4.72;;
27644;SDS011;15054;57.152;-2.118;2022-09-09T08:19:58;22.95;;;4.65;;
27644;SDS011;15054;57.152;-2.118;2022-09-09T08:22:30;26.30;;;4.57;;
27644;SDS011;15054;57.152;-2.118;2022-09-09T08:24:59;24.25;;;5.63;;
27644;SDS011;15054;57.152;-2.118;2022-09-09T08:27:30;20.15;;;3.80;;
27644;SDS011;15054;57.152;-2.118;2022-09-09T08:29:58;30.55;;;5.47;;
27644;SDS011;15054;57.152;-2.118;2022-09-09T08:32:26;22.95;;;5.38;;
27644;SDS011;15054;57.152;-2.118;2022-09-09T08:34:55;22.65;;;4.18;;
27644;SDS011;15054;57.152;-2.118;2022-09-09T08:37:27;21.67;;;4.68;;
27644;SDS011;15054;57.152;-2.118;2022-09-09T08:39:55;22.45;;;3.78;;
27644;SDS011;15054;57.152;-2.118;2022-09-09T08:51:01;20.02;;;4.32;;
27644;SDS011;15054;57.152;-2.118;2022-09-09T08:53:38;18.50;;;3.75;;
27644;SDS011;15054;57.152;-2.118;2022-09-09T08:56:14;28.85;;;4.20;;
27644;SDS011;15054;57.152;-2.118;2022-09-09T08:58:53;22.30;;;4.53;;
27644;SDS011;15054;57.152;-2.118;2022-09-09T09:07:59;17.05;;;3.88;;
27644;SDS011;15054;57.152;-2.118;2022-09-09T09:10:43;18.10;;;3.88;;
27644;SDS011;15054;57.152;-2.118;2022-09-09T09:15:57;16.13;;;2.90;;
27644;SDS011;15054;57.152;-2.118;2022-09-09T09:18:28;13.45;;;2.95;;
27644;SDS011;15054;57.152;-2.118;2022-09-09T09:21:04;16.48;;;3.00;;
27644;SDS011;15054;57.152;-2.118;2022-09-09T09:23:59;14.55;;;2.85;;
27644;SDS011;15054;57.152;-2.118;2022-09-09T09:26:32;11.48;;;3.22;;
27644;SDS011;15054;57.152;-2.118;2022-09-09T09:29:09;18.60;;;3.55;;
27644;SDS011;15054;57.152;-2.118;2022-09-09T09:31:41;20.52;;;3.40;;
27644;SDS011;15054;57.152;-2.118;2022-09-09T09:34:14;18.77;;;4.40;;
27644;SDS011;15054;57.152;-2.118;2022-09-09T09:36:45;13.43;;;2.83;;
27644;SDS011;15054;57.152;-2.118;2022-09-09T09:39:24;16.85;;;3.10;;
27644;SDS011;15054;57.152;-2.118;2022-09-09T09:42:16;22.42;;;3.83;;
27644;SDS011;15054;57.152;-2.118;2022-09-09T09:44:49;17.30;;;3.15;;
27644;SDS011;15054;57.152;-2.118;2022-09-09T09:47:20;28.02;;;4.57;;
27644;SDS011;15054;57.152;-2.118;2022-09-09T09:50:02;17.05;;;3.10;;
27644;SDS011;15054;57.152;-2.118;2022-09-09T09:52:35;14.93;;;3.22;;
27644;SDS011;15054;57.152;-2.118;2022-09-09T09:55:11;16.45;;;3.30;;
27644;SDS011;15054;57.152;-2.118;2022-09-09T09:57:43;18.50;;;2.83;;
27644;SDS011;15054;57.152;-2.118;2022-09-09T10:00:14;12.88;;;3.55;;
27644;SDS011;15054;57.152;-2.118;2022-09-09T10:02:55;13.50;;;3.20;;
27644;SDS011;15054;57.152;-2.118;2022-09-09T10:05:29;14.73;;;3.22;;
27644;SDS011;15054;57.152;-2.118;2022-09-09T10:13:47;16.85;;;3.53;;
27644;SDS011;15054;57.152;-2.118;2022-09-09T10:19:15;8.35;;;2.42;;
27644;SDS011;15054;57.152;-2.118;2022-09-09T10:24:37;14.27;;;2.40;;
27644;SDS011;15054;57.152;-2.118;2022-09-09T10:30:19;14.85;;;4.13;;
27644;SDS011;15054;57.152;-2.118;2022-09-09T10:35:31;19.27;;;3.40;;
27644;SDS011;15054;57.152;-2.118;2022-09-09T10:40:46;12.77;;;3.13;;
27644;SDS011;15054;57.152;-2.118;2022-09-09T11:00:48;19.70;;;3.47;;
27644;SDS011;15054;57.152;-2.118;2022-09-09T11:03:24;19.25;;;4.07;;
27644;SDS011;15054;57.152;-2.118;2022-09-09T11:06:17;12.32;;;3.13;;
27644;SDS011;15054;57.152;-2.118;2022-09-09T11:08:47;16.30;;;3.30;;
27644;SDS011;15054;57.152;-2.118;2022-09-09T11:11:26;14.05;;;3.10;;
27644;SDS011;15054;57.152;-2.118;2022-09-09T11:14:15;13.35;;;2.80;;
27644;SDS011;15054;57.152;-2.118;2022-09-09T11:17:18;16.95;;;3.42;;
27644;SDS011;15054;57.152;-2.118;2022-09-09T11:19:53;16.40;;;2.65;;
27644;SDS011;15054;57.152;-2.118;2022-09-09T11:28:14;16.08;;;3.53;;
27644;SDS011;15054;57.152;-2.118;2022-09-09T11:37:21;17.58;;;3.28;;
27644;SDS011;15054;57.152;-2.118;2022-09-09T11:42:44;9.43;;;2.45;;
27644;SDS011;15054;57.152;-2.118;2022-09-09T11:45:25;15.48;;;3.53;;
27644;SDS011;15054;57.152;-2.118;2022-09-09T11:48:00;11.75;;;2.47;;
27644;SDS011;15054;57.152;-2.118;2022-09-09T11:50:29;13.52;;;2.78;;
27644;SDS011;15054;57.152;-2.118;2022-09-09T11:53:19;16.17;;;3.17;;
27644;SDS011;15054;57.152;-2.118;2022-09-09T11:58:39;10.27;;;2.10;;
27644;SDS011;15054;57.152;-2.118;2022-09-09T12:01:25;10.52;;;2.20;;
27644;SDS011;15054;57.152;-2.118;2022-09-09T12:06:41;14.40;;;2.78;;
27644;SDS011;15054;57.152;-2.118;2022-09-09T12:14:56;11.70;;;2.50;;
27644;SDS011;15054;57.152;-2.118;2022-09-09T12:17:47;10.60;;;2.42;;
27644;SDS011;15054;57.152;-2.118;2022-09-09T12:27:02;12.00;;;2.30;;
27644;SDS011;15054;57.152;-2.118;2022-09-09T12:29:27;12.18;;;2.45;;
27644;SDS011;15054;57.152;-2.118;2022-09-09T12:32:13;7.95;;;2.10;;
27644;SDS011;15054;57.152;-2.118;2022-09-09T12:34:53;12.80;;;2.28;;
27644;SDS011;15054;57.152;-2.118;2022-09-09T12:37:36;12.20;;;2.30;;
27644;SDS011;15054;57.152;-2.118;2022-09-09T12:40:22;9.30;;;2.22;;
27644;SDS011;15054;57.152;-2.118;2022-09-09T12:42:54;12.32;;;2.75;;
27644;SDS011;15054;57.152;-2.118;2022-09-09T12:45:26;8.50;;;2.15;;
27644;SDS011;15054;57.152;-2.118;2022-09-09T12:48:06;14.25;;;2.28;;
27644;SDS011;15054;57.152;-2.118;2022-09-09T12:50:42;9.95;;;2.22;;
27644;SDS011;15054;57.152;-2.118;2022-09-09T12:53:33;7.88;;;2.28;;
27644;SDS011;15054;57.152;-2.118;2022-09-09T12:56:06;11.02;;;2.17;;
27644;SDS011;15054;57.152;-2.118;2022-09-09T12:58:37;6.65;;;1.73;;
27644;SDS011;15054;57.152;-2.118;2022-09-09T13:01:17;6.97;;;1.85;;
27644;SDS011;15054;57.152;-2.118;2022-09-09T13:03:50;8.23;;;1.85;;
27644;SDS011;15054;57.152;-2.118;2022-09-09T13:06:28;7.93;;;1.92;;
27644;SDS011;15054;57.152;-2.118;2022-09-09T13:08:58;11.15;;;2.33;;
27644;SDS011;15054;57.152;-2.118;2022-09-09T13:11:31;7.88;;;2.22;;
27644;SDS011;15054;57.152;-2.118;2022-09-09T13:16:59;8.43;;;2.50;;
27644;SDS011;15054;57.152;-2.118;2022-09-09T13:19:30;11.00;;;2.40;;
27644;SDS011;15054;57.152;-2.118;2022-09-09T13:22:12;11.13;;;2.83;;
27644;SDS011;15054;57.152;-2.118;2022-09-09T13:24:46;7.72;;;2.47;;
27644;SDS011;15054;57.152;-2.118;2022-09-09T13:27:24;11.52;;;2.85;;
27644;SDS011;15054;57.152;-2.118;2022-09-09T13:29:56;9.88;;;2.22;;
27644;SDS011;15054;57.152;-2.118;2022-09-09T13:32:24;8.88;;;2.65;;
27644;SDS011;15054;57.152;-2.118;2022-09-09T13:34:59;6.00;;;2.28;;
27644;SDS011;15054;57.152;-2.118;2022-09-09T13:37:30;8.65;;;1.90;;
27644;SDS011;15054;57.152;-2.118;2022-09-09T13:40:12;10.05;;;2.60;;
27644;SDS011;15054;57.152;-2.118;2022-09-09T13:42:44;13.18;;;2.50;;
27644;SDS011;15054;57.152;-2.118;2022-09-09T13:45:17;8.27;;;2.03;;
27644;SDS011;15054;57.152;-2.118;2022-09-09T13:47:47;12.20;;;3.15;;
27644;SDS011;15054;57.152;-2.118;2022-09-09T13:50:23;10.05;;;2.00;;
27644;SDS011;15054;57.152;-2.118;2022-09-09T13:52:53;7.72;;;2.17;;
27644;SDS011;15054;57.152;-2.118;2022-09-09T13:55:26;6.40;;;1.83;;
27644;SDS011;15054;57.152;-2.118;2022-09-09T13:57:55;9.57;;;2.15;;
27644;SDS011;15054;57.152;-2.118;2022-09-09T14:00:24;12.55;;;2.38;;
27644;SDS011;15054;57.152;-2.118;2022-09-09T14:02:51;10.60;;;2.58;;
27644;SDS011;15054;57.152;-2.118;2022-09-09T14:05:21;7.18;;;1.90;;
27644;SDS011;15054;57.152;-2.118;2022-09-09T14:07:49;10.57;;;2.13;;
27644;SDS011;15054;57.152;-2.118;2022-09-09T14:10:19;7.10;;;1.73;;
27644;SDS011;15054;57.152;-2.118;2022-09-09T14:12:46;8.18;;;2.28;;
27644;SDS011;15054;57.152;-2.118;2022-09-09T14:15:13;6.57;;;2.15;;
27644;SDS011;15054;57.152;-2.118;2022-09-09T14:17:41;13.88;;;2.35;;
27644;SDS011;15054;57.152;-2.118;2022-09-09T14:20:09;9.00;;;2.90;;
27644;SDS011;15054;57.152;-2.118;2022-09-09T14:22:39;7.53;;;2.40;;
27644;SDS011;15054;57.152;-2.118;2022-09-09T14:25:07;10.05;;;2.17;;
27644;SDS011;15054;57.152;-2.118;2022-09-09T14:27:34;6.97;;;1.50;;
27644;SDS011;15054;57.152;-2.118;2022-09-09T14:30:02;9.23;;;1.90;;
27644;SDS011;15054;57.152;-2.118;2022-09-09T14:32:29;9.93;;;1.95;;
27644;SDS011;15054;57.152;-2.118;2022-09-09T14:34:56;7.60;;;1.77;;
27644;SDS011;15054;57.152;-2.118;2022-09-09T14:37:24;8.93;;;1.90;;
27644;SDS011;15054;57.152;-2.118;2022-09-09T14:39:52;10.23;;;1.98;;
27644;SDS011;15054;57.152;-2.118;2022-09-09T14:42:23;9.73;;;2.83;;
27644;SDS011;15054;57.152;-2.118;2022-09-09T14:44:50;10.90;;;2.30;;
27644;SDS011;15054;57.152;-2.118;2022-09-09T14:47:19;12.65;;;2.42;;
27644;SDS011;15054;57.152;-2.118;2022-09-09T14:49:46;4.90;;;1.48;;
27644;SDS011;15054;57.152;-2.118;2022-09-09T14:52:16;7.88;;;1.83;;
27644;SDS011;15054;57.152;-2.118;2022-09-09T14:54:43;6.57;;;1.83;;
27644;SDS011;15054;57.152;-2.118;2022-09-09T14:57:10;5.70;;;1.48;;
27644;SDS011;15054;57.152;-2.118;2022-09-09T14:59:38;7.97;;;1.63;;
27644;SDS011;15054;57.152;-2.118;2022-09-09T15:02:05;8.63;;;2.15;;
27644;SDS011;15054;57.152;-2.118;2022-09-09T15:04:35;10.63;;;1.92;;
27644;SDS011;15054;57.152;-2.118;2022-09-09T15:07:03;4.97;;;1.58;;
27644;SDS011;15054;57.152;-2.118;2022-09-09T15:09:32;4.68;;;1.42;;
27644;SDS011;15054;57.152;-2.118;2022-09-09T15:11:59;7.13;;;1.67;;
27644;SDS011;15054;57.152;-2.118;2022-09-09T15:14:27;7.60;;;2.08;;
27644;SDS011;15054;57.152;-2.118;2022-09-09T15:16:58;9.95;;;1.83;;
27644;SDS011;15054;57.152;-2.118;2022-09-09T15:19:26;6.88;;;2.25;;
27644;SDS011;15054;57.152;-2.118;2022-09-09T15:21:58;12.57;;;3.45;;
27644;SDS011;15054;57.152;-2.118;2022-09-09T15:24:26;8.13;;;2.05;;
27644;SDS011;15054;57.152;-2.118;2022-09-09T15:26:55;6.15;;;1.35;;
27644;SDS011;15054;57.152;-2.118;2022-09-09T15:29:23;13.65;;;2.38;;
27644;SDS011;15054;57.152;-2.118;2022-09-09T15:31:50;6.68;;;1.45;;
27644;SDS011;15054;57.152;-2.118;2022-09-09T15:34:18;12.50;;;2.80;;
27644;SDS011;15054;57.152;-2.118;2022-09-09T15:36:45;14.07;;;2.03;;
27644;SDS011;15054;57.152;-2.118;2022-09-09T15:39:15;10.60;;;2.13;;
27644;SDS011;15054;57.152;-2.118;2022-09-09T15:41:44;7.45;;;2.38;;
27644;SDS011;15054;57.152;-2.118;2022-09-09T15:44:14;8.95;;;2.10;;
27644;SDS011;15054;57.152;-2.118;2022-09-09T15:46:43;13.02;;;2.40;;
27644;SDS011;15054;57.152;-2.118;2022-09-09T15:49:20;10.20;;;2.20;;
27644;SDS011;15054;57.152;-2.118;2022-09-09T15:51:52;9.63;;;1.80;;
27644;SDS011;15054;57.152;-2.118;2022-09-09T15:54:21;9.13;;;2.03;;
27644;SDS011;15054;57.152;-2.118;2022-09-09T15:56:53;9.10;;;2.45;;
27644;SDS011;15054;57.152;-2.118;2022-09-09T15:59:23;8.70;;;2.40;;
27644;SDS011;15054;57.152;-2.118;2022-09-09T16:01:52;11.95;;;2.47;;
27644;SDS011;15054;57.152;-2.118;2022-09-09T16:04:22;6.63;;;1.80;;
27644;SDS011;15054;57.152;-2.118;2022-09-09T16:06:50;12.32;;;2.45;;
27644;SDS011;15054;57.152;-2.118;2022-09-09T16:09:22;7.28;;;1.80;;
27644;SDS011;15054;57.152;-2.118;2022-09-09T16:11:51;9.88;;;2.67;;
27644;SDS011;15054;57.152;-2.118;2022-09-09T16:14:21;14.60;;;2.42;;
27644;SDS011;15054;57.152;-2.118;2022-09-09T16:16:48;14.13;;;2.25;;
27644;SDS011;15054;57.152;-2.118;2022-09-09T16:19:15;10.73;;;3.13;;
27644;SDS011;15054;57.152;-2.118;2022-09-09T16:21:48;18.45;;;2.95;;
27644;SDS011;15054;57.152;-2.118;2022-09-09T16:24:17;9.35;;;2.92;;
27644;SDS011;15054;57.152;-2.118;2022-09-09T16:26:48;7.28;;;2.17;;
27644;SDS011;15054;57.152;-2.118;2022-09-09T16:29:18;16.15;;;3.40;;
27644;SDS011;15054;57.152;-2.118;2022-09-09T16:31:48;15.10;;;3.17;;
27644;SDS011;15054;57.152;-2.118;2022-09-09T16:34:16;19.42;;;3.63;;
27644;SDS011;15054;57.152;-2.118;2022-09-09T16:36:45;11.80;;;3.50;;
27644;SDS011;15054;57.152;-2.118;2022-09-09T16:39:14;20.95;;;3.42;;
27644;SDS011;15054;57.152;-2.118;2022-09-09T16:41:43;15.10;;;3.47;;
27644;SDS011;15054;57.152;-2.118;2022-09-09T16:44:13;13.35;;;3.22;;
27644;SDS011;15054;57.152;-2.118;2022-09-09T16:46:42;10.73;;;2.63;;
27644;SDS011;15054;57.152;-2.118;2022-09-09T16:49:11;12.88;;;2.80;;
27644;SDS011;15054;57.152;-2.118;2022-09-09T16:51:44;16.98;;;3.67;;
27644;SDS011;15054;57.152;-2.118;2022-09-09T16:54:16;17.45;;;3.88;;
27644;SDS011;15054;57.152;-2.118;2022-09-09T16:56:45;12.05;;;2.50;;
27644;SDS011;15054;57.152;-2.118;2022-09-09T16:59:14;11.80;;;3.25;;
27644;SDS011;15054;57.152;-2.118;2022-09-09T17:01:47;17.58;;;2.80;;